createdAt,value
2019-04-29T00:00:58.007Z,101027.64
2019-04-29T00:03:27.145Z,101023.17
2019-04-29T00:05:56.261Z,101028.39
2019-04-29T00:08:25.487Z,101027.92
2019-04-29T00:10:54.610Z,101030.09
2019-04-29T00:13:23.798Z,101038.81
2019-04-29T00:16:11.991Z,101033.95
2019-04-29T00:19:07.434Z,101040.94
2019-04-29T00:21:35.651Z,101032.14
2019-04-29T00:24:04.894Z,101033.37
2019-04-29T00:26:34.016Z,101032.91
2019-04-29T00:29:03.135Z,101035.92
2019-04-29T00:31:32.264Z,101041.13
2019-04-29T00:34:01.388Z,101043.25
2019-04-29T00:36:35.344Z,101047.11
2019-04-29T00:39:23.733Z,101043.56
2019-04-29T00:42:16.095Z,101043.91
2019-04-29T00:44:45.263Z,101045.64
2019-04-29T00:47:14.903Z,101047.76
2019-04-29T00:49:44.059Z,101043.28
2019-04-29T00:52:13.169Z,101035.80
2019-04-29T00:54:48.107Z,101040.05
2019-04-29T00:57:17.274Z,101038.66
2019-04-29T00:59:46.416Z,101045.12
2019-04-29T01:02:15.555Z,101044.63
2019-04-29T01:04:44.674Z,101048.98
2019-04-29T01:07:13.824Z,101046.73
2019-04-29T01:09:42.961Z,101041.03
2019-04-29T01:12:12.142Z,101044.45
2019-04-29T01:14:41.281Z,101048.31
2019-04-29T01:17:10.403Z,100967.05
2019-04-29T01:19:39.532Z,101052.54
2019-04-29T01:22:08.669Z,101051.61
2019-04-29T01:24:37.824Z,101058.59
2019-04-29T01:29:46.573Z,101054.65
2019-04-29T01:32:15.700Z,101050.72
2019-04-29T01:34:50.696Z,101052.45
2019-04-29T01:37:19.823Z,101054.65
2019-04-29T01:39:55.187Z,101051.98
2019-04-29T01:42:27.470Z,101051.09
2019-04-29T01:44:56.611Z,101053.22
2019-04-29T01:47:25.723Z,101046.58
2019-04-29T01:49:54.844Z,101050.09
2019-04-29T01:52:24.049Z,101052.28
2019-04-29T01:54:53.221Z,101053.59
2019-04-29T01:57:22.339Z,101059.30
2019-04-29T01:59:51.486Z,101051.39
2019-04-29T02:02:20.595Z,101057.02
2019-04-29T02:04:49.747Z,101056.97
2019-04-29T02:07:18.848Z,101052.62
2019-04-29T02:09:55.793Z,101052.96
2019-04-29T02:12:24.928Z,101054.14
2019-04-29T02:14:54.043Z,101058.95
2019-04-29T02:17:23.174Z,101051.10
2019-04-29T02:19:52.395Z,100879.16
2019-04-29T02:22:30.962Z,101051.14
2019-04-29T02:25:11.394Z,101052.88
2019-04-29T02:27:40.518Z,101051.10
2019-04-29T02:30:10.694Z,101052.41
2019-04-29T02:32:39.818Z,101055.50
2019-04-29T02:35:08.935Z,101051.56
2019-04-29T02:37:40.495Z,101051.65
2019-04-29T02:40:23.222Z,101046.03
2019-04-29T02:42:58.809Z,101048.61
2019-04-29T02:45:31.470Z,101042.02
2019-04-29T02:48:00.582Z,101042.48
2019-04-29T02:50:29.708Z,101037.70
2019-04-29T02:52:58.856Z,101040.74
2019-04-29T02:55:32.533Z,101039.48
2019-04-29T02:58:12.550Z,101039.52
2019-04-29T03:01:00.162Z,101039.98
2019-04-29T03:03:51.441Z,101047.84
2019-04-29T03:06:20.559Z,101045.64
2019-04-29T03:08:49.675Z,101034.78
2019-04-29T03:11:21.399Z,101038.30
2019-04-29T03:13:50.526Z,101037.78
2019-04-29T03:16:20.608Z,101037.36
2019-04-29T03:18:54.210Z,101043.07
2019-04-29T03:21:40.663Z,101036.09
2019-04-29T03:24:09.802Z,101032.63
2019-04-29T03:26:38.941Z,101027.85
2019-04-29T03:29:22.155Z,101023.92
2019-04-29T03:31:56.738Z,101031.40
2019-04-29T03:34:25.080Z,101028.36
2019-04-29T03:36:54.293Z,101034.44
2019-04-29T03:39:23.449Z,101036.60
2019-04-29T03:41:52.586Z,101032.63
2019-04-29T03:44:21.734Z,101033.90
2019-04-29T03:46:50.879Z,101038.25
2019-04-29T03:49:20.152Z,101035.59
2019-04-29T03:51:49.298Z,101035.12
2019-04-29T03:54:18.419Z,100734.76
2019-04-29T03:56:47.606Z,101040.83
2019-04-29T03:59:16.730Z,101032.50
2019-04-29T04:01:56.220Z,101034.23
2019-04-29T04:04:43.003Z,101036.02
2019-04-29T04:07:46.145Z,101039.94
2019-04-29T04:10:16.019Z,101038.63
2019-04-29T04:12:45.303Z,101038.63
2019-04-29T04:15:14.420Z,101039.48
2019-04-29T04:17:53.185Z,101043.87
2019-04-29T04:20:22.681Z,101041.17
2019-04-29T04:22:51.812Z,101041.64
2019-04-29T04:25:20.927Z,101046.03
2019-04-29T04:27:50.052Z,101042.56
2019-04-29T04:30:19.852Z,101049.16
2019-04-29T04:32:49.008Z,101047.47
2019-04-29T04:35:18.117Z,101055.38
2019-04-29T04:37:47.270Z,101050.97
2019-04-29T04:40:20.763Z,101052.37
2019-04-29T04:42:49.904Z,101058.92
2019-04-29T04:45:19.092Z,101058.08
2019-04-29T04:47:48.229Z,101058.08
2019-04-29T04:50:17.357Z,101061.20
2019-04-29T04:52:46.471Z,101055.58
2019-04-29T04:55:15.613Z,101058.29
2019-04-29T04:57:44.749Z,101060.06
2019-04-29T05:00:20.450Z,101062.30
2019-04-29T05:02:49.515Z,101060.61
2019-04-29T05:05:18.631Z,101063.73
2019-04-29T05:07:47.753Z,101060.31
2019-04-29T05:10:16.874Z,101062.12
2019-04-29T05:12:46.329Z,101060.86
2019-04-29T05:15:15.425Z,101061.75
2019-04-29T05:17:44.671Z,101069.31
2019-04-29T05:20:13.783Z,101073.83
2019-04-29T05:22:59.164Z,101080.46
2019-04-29T05:25:53.051Z,101077.92
2019-04-29T05:28:22.197Z,101078.84
2019-04-29T05:30:51.311Z,101080.16
2019-04-29T05:33:20.459Z,101082.91
2019-04-29T05:35:56.699Z,101082.52
2019-04-29T05:38:48.113Z,101075.58
2019-04-29T05:41:17.424Z,101082.64
2019-04-29T05:44:11.775Z,101082.56
2019-04-29T05:46:59.475Z,101083.83
2019-04-29T05:49:37.378Z,101079.94
2019-04-29T05:52:34.558Z,101080.83
2019-04-29T05:55:01.662Z,101083.91
2019-04-29T05:57:31.201Z,101080.20
2019-04-29T06:00:00.347Z,101083.88
2019-04-29T06:02:33.623Z,101088.04
2019-04-29T06:05:00.361Z,101087.38
2019-04-29T06:07:29.477Z,101089.41
2019-04-29T06:09:58.628Z,101089.66
2019-04-29T06:12:27.753Z,101089.48
2019-04-29T06:14:56.894Z,101094.09
2019-04-29T06:17:26.075Z,101098.17
2019-04-29T06:19:55.333Z,101095.28
2019-04-29T06:22:24.486Z,101093.64
2019-04-29T06:24:53.639Z,101091.15
2019-04-29T06:27:22.767Z,101091.41
2019-04-29T06:29:51.917Z,101094.62
2019-04-29T06:32:25.076Z,101094.74
2019-04-29T06:34:51.903Z,101093.58
2019-04-29T06:37:21.079Z,101087.21
2019-04-29T06:39:50.205Z,101079.12
2019-04-29T06:42:20.408Z,101076.77
2019-04-29T06:44:50.770Z,101079.61
2019-04-29T06:47:20.051Z,101078.02
2019-04-29T06:49:49.209Z,101073.82
2019-04-29T06:52:18.347Z,101078.28
2019-04-29T06:54:47.601Z,101084.47
2019-04-29T06:57:16.746Z,101084.57
2019-04-29T06:59:47.478Z,101090.00
2019-04-29T07:02:16.909Z,101087.05
2019-04-29T07:04:46.075Z,101085.89
2019-04-29T07:07:15.184Z,101096.67
2019-04-29T07:09:44.394Z,101093.33
2019-04-29T07:12:14.028Z,101099.72
2019-04-29T07:14:43.298Z,101099.01
2019-04-29T07:17:12.434Z,101097.02
2019-04-29T07:19:41.564Z,101091.43
2019-04-29T07:22:10.749Z,101088.96
2019-04-29T07:24:39.890Z,101085.23
2019-04-29T07:27:09.029Z,101083.67
2019-04-29T07:29:38.343Z,101080.31
2019-04-29T07:32:09.335Z,101079.53
2019-04-29T07:34:39.576Z,101073.87
2019-04-29T07:37:08.987Z,101072.58
2019-04-29T07:39:38.118Z,101063.38
2019-04-29T07:42:07.256Z,101062.06
2019-04-29T07:47:20.288Z,101065.05
2019-04-29T07:49:51.515Z,101069.84
2019-04-29T07:52:20.318Z,101065.41
2019-04-29T07:54:55.213Z,101063.55
2019-04-29T07:57:20.326Z,101056.64
2019-04-29T07:59:49.456Z,101057.14
2019-04-29T08:02:18.622Z,101058.41
2019-04-29T08:04:47.776Z,101058.39
2019-04-29T08:07:18.128Z,101051.78
2019-04-29T08:09:47.774Z,101050.95
2019-04-29T08:12:17.109Z,101056.29
2019-04-29T08:14:46.686Z,101055.45
2019-04-29T08:17:15.819Z,101052.78
2019-04-29T08:19:44.992Z,101054.57
2019-04-29T08:22:17.778Z,101054.09
2019-04-29T08:24:45.880Z,101045.72
2019-04-29T08:27:15.824Z,101049.26
2019-04-29T08:29:44.967Z,101053.66
2019-04-29T08:32:14.130Z,101053.64
2019-04-29T08:34:43.281Z,101057.97
2019-04-29T08:37:12.576Z,101058.78
2019-04-29T08:39:41.715Z,101068.41
2019-04-29T08:42:13.478Z,101059.09
2019-04-29T08:45:04.620Z,101057.30
2019-04-29T08:47:35.901Z,101062.20
2019-04-29T08:50:05.523Z,101066.12
2019-04-29T08:52:34.678Z,101065.60
2019-04-29T08:55:04.089Z,101059.81
2019-04-29T08:57:36.577Z,101056.63
2019-04-29T09:00:05.575Z,101051.26
2019-04-29T09:02:35.711Z,101045.98
2019-04-29T09:05:06.803Z,101055.23
2019-04-29T09:07:36.700Z,101055.60
2019-04-29T09:10:06.530Z,101053.75
2019-04-29T09:12:35.667Z,101052.20
2019-04-29T09:15:05.335Z,101052.25
2019-04-29T09:17:34.474Z,101054.42
2019-04-29T09:20:03.855Z,101046.42
2019-04-29T09:22:34.631Z,101057.25
2019-04-29T09:25:21.353Z,101057.30
2019-04-29T09:27:50.509Z,101049.88
2019-04-29T09:30:20.442Z,101061.41
2019-04-29T09:32:49.552Z,101059.64
2019-04-29T09:35:18.719Z,101065.41
2019-04-29T09:37:47.890Z,101064.50
2019-04-29T09:40:19.133Z,101058.77
2019-04-29T09:43:15.202Z,101056.58
2019-04-29T09:45:49.605Z,101057.91
2019-04-29T09:48:18.728Z,101045.60
2019-04-29T09:50:47.869Z,101053.16
2019-04-29T09:53:17.053Z,101048.25
2019-04-29T09:55:46.263Z,101050.89
2019-04-29T09:58:15.386Z,101053.53
2019-04-29T10:01:21.843Z,101048.62
2019-04-29T10:04:06.283Z,101050.39
2019-04-29T10:06:37.138Z,101053.53
2019-04-29T10:09:09.451Z,101044.72
2019-04-29T10:11:39.095Z,101048.70
2019-04-29T10:14:08.322Z,101045.64
2019-04-29T10:16:45.311Z,101045.66
2019-04-29T10:19:32.195Z,101039.47
2019-04-29T10:22:01.349Z,101040.80
2019-04-29T10:24:30.512Z,101037.30
2019-04-29T10:26:59.655Z,101044.81
2019-04-29T10:29:30.369Z,101039.52
2019-04-29T10:32:02.455Z,101028.47
2019-04-29T10:34:31.526Z,101028.91
2019-04-29T10:37:01.380Z,101033.36
2019-04-29T10:39:55.174Z,101034.25
2019-04-29T10:42:33.040Z,101029.83
2019-04-29T10:45:24.240Z,101029.41
2019-04-29T10:47:59.541Z,100928.80
2019-04-29T10:50:36.835Z,101027.19
2019-04-29T10:53:11.067Z,101024.09
2019-04-29T10:55:39.454Z,101022.75
2019-04-29T10:58:08.575Z,101017.89
2019-04-29T11:01:20.630Z,101018.34
2019-04-29T11:03:49.832Z,101015.70
2019-04-29T11:06:19.428Z,101014.82
2019-04-29T11:08:56.522Z,101010.37
2019-04-29T11:11:27.304Z,101011.70
2019-04-29T11:13:57.670Z,101011.73
2019-04-29T11:16:45.323Z,101015.26
2019-04-29T11:19:00.321Z,101014.38
2019-04-29T11:21:31.173Z,101013.05
2019-04-29T11:24:08.476Z,101012.16
2019-04-29T11:26:48.218Z,101013.91
2019-04-29T11:29:17.364Z,101010.83
2019-04-29T11:31:49.058Z,101001.12
2019-04-29T11:34:53.036Z,101000.69
2019-04-29T11:37:20.083Z,100998.47
2019-04-29T11:39:50.300Z,100995.39
2019-04-29T11:42:20.412Z,100990.98
2019-04-29T11:44:49.545Z,100985.69
2019-04-29T11:47:20.867Z,100976.00
2019-04-29T11:49:59.669Z,100970.70
2019-04-29T11:52:29.312Z,100972.91
2019-04-29T11:54:58.666Z,100958.78
2019-04-29T11:57:43.016Z,100967.17
2019-04-29T12:00:23.670Z,100964.53
2019-04-29T12:02:55.676Z,100979.52
2019-04-29T12:05:46.246Z,100975.98
2019-04-29T12:08:16.932Z,100979.08
2019-04-29T12:10:58.297Z,100979.52
2019-04-29T12:13:28.165Z,100981.29
2019-04-29T12:16:19.721Z,100981.73
2019-04-29T12:18:52.913Z,100983.05
2019-04-29T12:21:30.065Z,100972.47
2019-04-29T12:24:00.675Z,100968.05
2019-04-29T12:26:29.959Z,100966.72
2019-04-29T12:28:59.099Z,100960.09
2019-04-29T12:31:49.326Z,100959.22
2019-04-29T12:34:26.852Z,100949.08
2019-04-29T12:36:56.957Z,100950.42
2019-04-29T12:39:54.370Z,100941.59
2019-04-29T12:42:41.559Z,100931.90
2019-04-29T12:45:23.233Z,100935.41
2019-04-29T12:47:52.369Z,100921.74
2019-04-29T12:50:22.999Z,100930.11
2019-04-29T12:52:52.353Z,100915.13
2019-04-29T12:55:43.661Z,100912.47
2019-04-29T12:57:58.167Z,100911.59
2019-04-29T13:00:30.661Z,100919.55
2019-04-29T13:03:06.527Z,100910.73
2019-04-29T13:06:09.482Z,100911.61
2019-04-29T13:08:49.812Z,100902.80
2019-04-29T13:11:20.953Z,100896.16
2019-04-29T13:13:51.399Z,100894.41
2019-04-29T13:16:36.485Z,100893.97
2019-04-29T13:19:20.591Z,100897.94
2019-04-29T13:21:52.419Z,100891.33
2019-04-29T13:24:24.860Z,100894.84
2019-04-29T13:26:52.623Z,100880.77
2019-04-29T13:29:27.199Z,100890.45
2019-04-29T13:31:52.899Z,100875.45
2019-04-29T13:34:30.942Z,100882.94
2019-04-29T13:37:07.237Z,100888.70
2019-04-29T13:39:39.041Z,100891.34
2019-04-29T13:42:02.873Z,100895.30
2019-04-29T13:44:31.595Z,100893.98
2019-04-29T13:47:28.366Z,100897.05
2019-04-29T13:50:17.937Z,100894.40
2019-04-29T13:52:39.659Z,100895.72
2019-04-29T13:55:17.306Z,100895.28
2019-04-29T13:57:39.917Z,100886.02
2019-04-29T14:00:31.577Z,100880.73
2019-04-29T14:03:07.173Z,100878.09
2019-04-29T14:05:38.061Z,100875.88
2019-04-29T14:08:07.515Z,100874.14
2019-04-29T14:10:36.647Z,100871.50
2019-04-29T14:13:15.143Z,100867.97
2019-04-29T14:15:40.319Z,100866.62
2019-04-29T14:18:11.625Z,100864.42
2019-04-29T14:20:38.366Z,100866.63
2019-04-29T14:23:07.503Z,100863.98
2019-04-29T14:25:36.658Z,100866.64
2019-04-29T14:28:05.967Z,100857.83
2019-04-29T14:30:39.083Z,100860.91
2019-04-29T14:33:06.041Z,100863.13
2019-04-29T14:35:48.328Z,100858.71
2019-04-29T14:38:17.635Z,100861.80
2019-04-29T14:40:46.809Z,100859.59
2019-04-29T14:43:31.934Z,100857.82
2019-04-29T14:46:16.306Z,100872.80
2019-04-29T14:48:59.559Z,100862.22
2019-04-29T14:51:36.318Z,100864.01
2019-04-29T14:54:01.304Z,100865.77
2019-04-29T14:56:30.780Z,100861.80
2019-04-29T14:59:06.928Z,100856.06
2019-04-29T15:01:38.835Z,100857.39
2019-04-29T15:04:18.006Z,100864.00
2019-04-29T15:06:40.913Z,100850.33
2019-04-29T15:09:16.872Z,100843.72
2019-04-29T15:11:49.635Z,100844.16
2019-04-29T15:14:36.193Z,100843.73
2019-04-29T15:17:19.712Z,100858.27
2019-04-29T15:20:13.896Z,100858.70
2019-04-29T15:22:43.139Z,100863.99
2019-04-29T15:25:12.590Z,100878.09
2019-04-29T15:27:41.756Z,100883.38
2019-04-29T15:30:11.905Z,100881.60
2019-04-29T15:32:41.042Z,100878.08
2019-04-29T15:35:10.212Z,100888.21
2019-04-29T15:37:39.338Z,100890.42
2019-04-29T15:40:09.474Z,100892.62
2019-04-29T15:42:43.197Z,100887.77
2019-04-29T15:45:09.966Z,100881.58
2019-04-29T15:47:41.660Z,100883.34
2019-04-29T15:50:18.760Z,100874.53
2019-04-29T15:52:41.034Z,100878.08
2019-04-29T15:55:10.262Z,100885.10
2019-04-29T15:57:39.428Z,100878.08
2019-04-29T16:00:21.284Z,100877.20
2019-04-29T16:02:43.073Z,100878.52
2019-04-29T16:05:54.212Z,100878.06
2019-04-29T16:08:29.500Z,100877.17
2019-04-29T16:11:19.014Z,100871.03
2019-04-29T16:14:07.794Z,100878.08
2019-04-29T16:16:19.007Z,100872.33
2019-04-29T16:18:48.174Z,100872.78
2019-04-29T16:21:17.347Z,100871.90
2019-04-29T16:23:46.501Z,100871.01
2019-04-29T16:26:15.678Z,100873.66
2019-04-29T16:28:44.928Z,100871.45
2019-04-29T16:31:14.491Z,100873.22
2019-04-29T16:33:47.305Z,100872.35
2019-04-29T16:36:14.647Z,100865.75
2019-04-29T16:38:46.277Z,100867.06
2019-04-29T16:41:33.647Z,100867.06
2019-04-29T16:44:03.270Z,100864.39
2019-04-29T16:46:37.503Z,100864.84
2019-04-29T16:49:03.759Z,100867.49
2019-04-29T16:51:32.924Z,100860.45
2019-04-29T16:54:02.099Z,100855.17
2019-04-29T16:56:31.261Z,100861.79
2019-04-29T16:59:08.882Z,100859.16
2019-04-29T17:01:31.414Z,100857.40
2019-04-29T17:04:05.094Z,100860.03
2019-04-29T17:06:35.949Z,100858.72
2019-04-29T17:09:12.244Z,100854.31
2019-04-29T17:11:41.560Z,100864.45
2019-04-29T17:14:12.628Z,100859.59
2019-04-29T17:16:41.665Z,100863.54
2019-04-29T17:19:10.945Z,100863.98
2019-04-29T17:21:40.099Z,100860.48
2019-04-29T17:24:09.277Z,100861.34
2019-04-29T17:26:48.694Z,100870.59
2019-04-29T17:29:49.300Z,100862.22
2019-04-29T17:32:44.522Z,100861.80
2019-04-29T17:35:11.715Z,100865.30
2019-04-29T17:37:41.097Z,100867.06
2019-04-29T17:40:12.371Z,100871.91
2019-04-29T17:42:43.157Z,100868.39
2019-04-29T17:45:27.037Z,100867.51
2019-04-29T17:47:55.914Z,100871.06
2019-04-29T17:50:30.966Z,100867.53
2019-04-29T17:53:00.420Z,100871.06
2019-04-29T17:55:38.760Z,100872.81
2019-04-29T17:58:17.117Z,100879.86
2019-04-29T18:01:06.538Z,100877.66
2019-04-29T18:03:57.736Z,100882.52
2019-04-29T18:06:32.951Z,100889.99
2019-04-29T18:09:30.310Z,100888.67
2019-04-29T18:12:04.949Z,100885.58
2019-04-29T18:14:40.394Z,100892.62
2019-04-29T18:17:05.307Z,100890.43
2019-04-29T18:19:42.389Z,100891.75
2019-04-29T18:22:29.341Z,100899.24
2019-04-29T18:25:16.091Z,100894.38
2019-04-29T18:27:49.152Z,100895.25
2019-04-29T18:30:21.002Z,100900.98
2019-04-29T18:32:48.260Z,100900.98
2019-04-29T18:35:17.636Z,100899.22
2019-04-29T18:37:46.889Z,100898.34
2019-04-29T18:40:16.261Z,100904.06
2019-04-29T18:42:48.390Z,100907.16
2019-04-29T18:45:16.395Z,100909.79
2019-04-29T18:47:45.578Z,100910.67
2019-04-29T18:50:15.898Z,100913.31
2019-04-29T18:52:45.887Z,100911.55
2019-04-29T18:55:17.231Z,100920.36
2019-04-29T18:57:46.464Z,100922.12
2019-04-29T19:00:19.932Z,100920.79
2019-04-29T19:02:52.484Z,100929.16
2019-04-29T19:05:26.393Z,100930.92
2019-04-29T19:08:00.079Z,100930.49
2019-04-29T19:10:32.870Z,100927.84
2019-04-29T19:12:59.990Z,100929.61
2019-04-29T19:15:26.385Z,100926.97
2019-04-29T19:18:01.281Z,100934.47
2019-04-29T19:20:26.438Z,100934.89
2019-04-29T19:23:05.412Z,100930.48
2019-04-29T19:25:26.550Z,100933.56
2019-04-29T19:27:55.711Z,100939.73
2019-04-29T19:30:29.028Z,100943.70
2019-04-29T19:33:00.491Z,100943.26
2019-04-29T19:35:29.403Z,100946.34
2019-04-29T19:37:57.508Z,100940.62
2019-04-29T19:40:30.663Z,100945.91
2019-04-29T19:42:57.578Z,100941.94
2019-04-29T19:45:26.901Z,100946.34
2019-04-29T19:47:56.028Z,100947.23
2019-04-29T19:50:25.719Z,100945.03
2019-04-29T19:52:55.536Z,100948.11
2019-04-29T19:55:25.240Z,100948.10
2019-04-29T19:57:56.551Z,100949.42
2019-04-29T20:00:29.428Z,100945.90
2019-04-29T20:02:58.067Z,100949.87
2019-04-29T20:05:42.342Z,100947.23
2019-04-29T20:08:19.349Z,100947.23
2019-04-29T20:10:48.138Z,100952.95
2019-04-29T20:13:14.020Z,100956.91
2019-04-29T20:15:53.926Z,100948.98
2019-04-29T20:18:56.157Z,100958.66
2019-04-29T20:21:28.811Z,100950.73
2019-04-29T20:23:47.513Z,100963.06
2019-04-29T20:26:23.766Z,100955.13
2019-04-29T20:28:51.144Z,100961.74
2019-04-29T20:31:22.405Z,100957.78
2019-04-29T20:33:50.773Z,100958.22
2019-04-29T20:36:32.933Z,100952.48
2019-04-29T20:38:51.051Z,100956.02
2019-04-29T20:41:36.739Z,100955.14
2019-04-29T20:43:51.459Z,100956.90
2019-04-29T20:46:20.830Z,100964.83
2019-04-29T20:48:54.598Z,100965.27
2019-04-29T20:51:23.177Z,100960.42
2019-04-29T20:53:57.753Z,100958.66
2019-04-29T20:56:29.863Z,100957.34
2019-04-29T20:59:02.094Z,100954.70
2019-04-29T21:01:38.643Z,100964.39
2019-04-29T21:04:05.823Z,100958.66
2019-04-29T21:06:39.236Z,100957.34
2019-04-29T21:09:07.761Z,100956.47
2019-04-29T21:12:05.096Z,100952.94
2019-04-29T21:14:41.786Z,100956.47
2019-04-29T21:17:11.358Z,100950.30
2019-04-29T21:19:40.645Z,100948.11
2019-04-29T21:22:20.399Z,100950.31
2019-04-29T21:24:45.307Z,100950.31
2019-04-29T21:27:17.701Z,100947.66
2019-04-29T21:29:45.783Z,100792.38
2019-04-29T21:32:15.700Z,100945.03
2019-04-29T21:34:55.629Z,100938.86
2019-04-29T21:40:24.772Z,100940.62
2019-04-29T21:42:58.469Z,100936.21
2019-04-29T21:45:27.629Z,100783.10
2019-04-29T21:47:56.791Z,100942.80
2019-04-29T21:50:29.373Z,100945.42
2019-04-29T21:53:01.723Z,100941.89
2019-04-29T21:55:29.338Z,100937.03
2019-04-29T21:58:00.369Z,100941.44
2019-04-29T22:00:29.503Z,100945.39
2019-04-29T22:02:59.060Z,100945.86
2019-04-29T22:05:28.225Z,100944.53
2019-04-29T22:07:57.521Z,100945.41
2019-04-29T22:10:28.999Z,100951.11
2019-04-29T22:13:01.781Z,100947.58
2019-04-29T22:15:32.705Z,100724.34
2019-04-29T22:18:01.636Z,100954.17
2019-04-29T22:20:30.293Z,100956.80
2019-04-29T22:22:59.460Z,100955.02
2019-04-29T22:25:28.701Z,100955.44
2019-04-29T22:27:57.867Z,100952.37
2019-04-29T22:30:27.114Z,100952.80
2019-04-29T22:32:58.637Z,100953.24
2019-04-29T22:35:27.711Z,100955.89
2019-04-29T22:38:00.358Z,100954.56
2019-04-29T22:40:29.493Z,100955.45
2019-04-29T22:43:15.001Z,100957.22
2019-04-29T22:45:44.623Z,100953.69
2019-04-29T22:48:17.396Z,100954.56
2019-04-29T22:50:45.503Z,100959.39
2019-04-29T22:53:15.589Z,100962.02
2019-04-29T22:55:45.217Z,100957.59
2019-04-29T22:58:15.108Z,100967.26
2019-04-29T23:00:44.507Z,100964.59
2019-04-29T23:03:13.580Z,100958.86
2019-04-29T23:05:42.713Z,100961.52
2019-04-29T23:08:11.848Z,100960.59
2019-04-29T23:10:40.986Z,100957.06
2019-04-29T23:13:10.103Z,100961.91
2019-04-29T23:15:39.267Z,100957.06
2019-04-29T23:18:09.279Z,100954.42
2019-04-29T23:21:03.988Z,100947.81
2019-04-29T23:23:41.933Z,100950.91
2019-04-29T23:26:11.135Z,100951.80
2019-04-29T23:28:40.270Z,100950.96
2019-04-29T23:31:09.394Z,100952.69
2019-04-29T23:33:38.573Z,100952.70
2019-04-29T23:36:09.688Z,100951.36
2019-04-29T23:38:42.640Z,100948.73
2019-04-29T23:41:09.427Z,100943.04
2019-04-29T23:43:38.574Z,100941.72
2019-04-29T23:46:07.716Z,100937.30
2019-04-29T23:48:39.557Z,100930.25
2019-04-29T23:51:07.710Z,100924.09
2019-04-29T23:53:37.012Z,100925.42
2019-04-29T23:56:09.660Z,100931.58
2019-04-29T23:58:47.025Z,100933.34
